createdAt,value
2022-08-26T00:00:07.054Z,26.05
2022-08-26T00:02:33.787Z,26.04
2022-08-26T00:05:00.445Z,25.74
2022-08-26T00:07:27.545Z,25.59
2022-08-26T00:09:56.043Z,25.49
2022-08-26T00:12:31.478Z,25.34
2022-08-26T00:15:02.917Z,25.26
2022-08-26T00:17:30.636Z,25.05
2022-08-26T00:19:57.678Z,25.03
2022-08-26T00:22:24.409Z,24.96
2022-08-26T00:24:51.160Z,25.05
2022-08-26T00:27:17.968Z,25.07
2022-08-26T00:29:44.704Z,24.90
2022-08-26T00:32:12.689Z,24.96
2022-08-26T00:34:41.080Z,24.99
2022-08-26T00:37:09.862Z,24.76
2022-08-26T00:39:39.216Z,24.61
2022-08-26T00:42:06.086Z,24.69
2022-08-26T00:44:32.781Z,24.54
2022-08-26T00:47:01.684Z,24.42
2022-08-26T00:49:43.304Z,24.62
2022-08-26T00:52:13.177Z,24.44
2022-08-26T00:54:45.365Z,24.30
2022-08-26T00:57:16.222Z,24.43
2022-08-26T00:59:46.602Z,24.57
2022-08-26T01:02:20.808Z,24.62
2022-08-26T01:04:55.521Z,24.63
2022-08-26T01:07:23.505Z,24.56
2022-08-26T01:09:50.149Z,24.68
2022-08-26T01:12:17.176Z,24.71
2022-08-26T01:14:49.473Z,24.50
2022-08-26T01:17:16.123Z,24.47
2022-08-26T01:19:49.497Z,24.35
2022-08-26T01:22:46.079Z,24.22
2022-08-26T01:25:13.863Z,24.27
2022-08-26T01:27:40.525Z,24.19
2022-08-26T01:30:07.932Z,24.20
2022-08-26T01:32:36.351Z,24.35
2022-08-26T01:35:07.175Z,24.45
2022-08-26T01:37:36.386Z,24.37
2022-08-26T01:40:06.809Z,24.37
2022-08-26T01:42:34.645Z,24.29
2022-08-26T01:45:08.971Z,24.06
2022-08-26T01:47:36.639Z,23.93
2022-08-26T01:50:09.168Z,23.84
2022-08-26T01:52:40.277Z,23.66
2022-08-26T01:55:07.524Z,23.47
2022-08-26T01:57:35.013Z,23.56
2022-08-26T02:00:04.652Z,23.66
2022-08-26T02:02:31.504Z,23.75
2022-08-26T02:05:05.681Z,23.54
2022-08-26T02:07:33.475Z,23.56
2022-08-26T02:10:00.518Z,23.42
2022-08-26T02:12:27.499Z,23.44
2022-08-26T02:14:56.334Z,23.46
2022-08-26T02:17:35.981Z,23.57
2022-08-26T02:20:06.608Z,23.43
2022-08-26T02:22:41.617Z,23.46
2022-08-26T02:25:26.076Z,23.52
2022-08-26T02:27:53.037Z,23.65
2022-08-26T02:30:24.219Z,23.59
2022-08-26T02:32:53.311Z,23.44
2022-08-26T02:35:22.085Z,23.37
2022-08-26T02:37:50.436Z,23.42
2022-08-26T02:40:21.586Z,23.59
2022-08-26T02:42:49.095Z,23.63
2022-08-26T02:45:16.739Z,23.63
2022-08-26T02:47:50.801Z,23.52
2022-08-26T02:50:17.543Z,23.46
2022-08-26T02:52:44.379Z,23.25
2022-08-26T02:55:11.257Z,23.22
2022-08-26T02:57:37.906Z,23.21
2022-08-26T03:00:06.478Z,23.18
2022-08-26T03:02:33.149Z,23.12
2022-08-26T03:05:01.686Z,23.19
2022-08-26T03:07:29.245Z,23.35
2022-08-26T03:10:14.922Z,23.26
2022-08-26T03:12:41.658Z,23.29
2022-08-26T03:15:16.591Z,23.42
2022-08-26T03:17:46.758Z,23.31
2022-08-26T03:20:15.559Z,23.16
2022-08-26T03:22:44.016Z,23.28
2022-08-26T03:25:12.871Z,23.35
2022-08-26T03:27:41.726Z,23.30
2022-08-26T03:30:29.419Z,23.20
2022-08-26T03:32:56.070Z,23.14
2022-08-26T03:35:23.233Z,23.25
2022-08-26T03:37:50.003Z,23.24
2022-08-26T03:40:16.696Z,23.29
2022-08-26T03:42:47.722Z,23.27
2022-08-26T03:45:16.221Z,23.26
2022-08-26T03:47:42.945Z,23.28
2022-08-26T03:50:12.347Z,23.30
2022-08-26T03:52:43.515Z,23.50
2022-08-26T03:55:11.153Z,23.30
2022-08-26T03:57:37.829Z,23.13
2022-08-26T04:00:08.005Z,23.21
2022-08-26T04:02:34.879Z,23.31
2022-08-26T04:05:02.722Z,23.26
2022-08-26T04:07:32.033Z,23.34
2022-08-26T04:09:59.813Z,23.42
2022-08-26T04:12:27.288Z,23.47
2022-08-26T04:14:54.045Z,23.54
2022-08-26T04:17:25.919Z,23.56
2022-08-26T04:19:53.963Z,23.59
2022-08-26T04:22:24.789Z,23.34
2022-08-26T04:24:52.182Z,23.29
2022-08-26T04:27:18.848Z,23.18
2022-08-26T04:29:47.721Z,23.24
2022-08-26T04:32:15.610Z,23.32
2022-08-26T04:34:43.711Z,23.29
2022-08-26T04:37:12.103Z,23.18
2022-08-26T04:39:38.987Z,23.04
2022-08-26T04:42:06.122Z,23.01
2022-08-26T04:44:35.386Z,23.12
2022-08-26T04:47:02.188Z,23.09
2022-08-26T04:49:35.100Z,23.04
2022-08-26T04:52:03.010Z,23.05
2022-08-26T04:54:29.713Z,23.13
2022-08-26T04:56:56.508Z,23.15
2022-08-26T04:59:23.143Z,23.00
2022-08-26T05:01:52.526Z,23.06
2022-08-26T05:04:20.633Z,23.18
2022-08-26T05:06:48.407Z,23.01
2022-08-26T05:09:16.105Z,23.00
2022-08-26T05:11:42.953Z,22.90
2022-08-26T05:14:09.808Z,22.75
2022-08-26T05:16:36.671Z,22.75
2022-08-26T05:19:04.410Z,22.77
2022-08-26T05:21:31.430Z,22.92
2022-08-26T05:23:58.587Z,22.98
2022-08-26T05:26:27.594Z,22.93
2022-08-26T05:28:55.279Z,22.96
2022-08-26T05:31:31.385Z,22.93
2022-08-26T05:33:59.074Z,23.06
2022-08-26T05:36:29.480Z,23.18
2022-08-26T05:38:57.894Z,23.28
2022-08-26T05:41:34.238Z,22.99
2022-08-26T05:44:06.009Z,23.14
2022-08-26T05:46:34.424Z,22.97
2022-08-26T05:49:01.465Z,23.04
2022-08-26T05:51:30.384Z,23.05
2022-08-26T05:53:57.388Z,22.97
2022-08-26T05:56:26.283Z,22.96
2022-08-26T05:58:55.934Z,23.02
2022-08-26T06:01:26.140Z,22.97
2022-08-26T06:03:56.345Z,22.68
2022-08-26T06:06:29.847Z,22.79
2022-08-26T06:08:59.433Z,22.78
2022-08-26T06:11:27.323Z,22.85
2022-08-26T06:14:00.021Z,22.89
2022-08-26T06:16:28.885Z,23.05
2022-08-26T06:18:55.946Z,23.01
2022-08-26T06:21:26.717Z,22.93
2022-08-26T06:24:14.894Z,22.98
2022-08-26T06:26:43.272Z,23.16
2022-08-26T06:29:24.071Z,23.04
2022-08-26T06:31:52.729Z,23.05
2022-08-26T06:34:19.932Z,23.09
2022-08-26T06:36:47.503Z,23.10
2022-08-26T06:39:15.851Z,22.96
2022-08-26T06:41:45.050Z,23.00
2022-08-26T06:44:14.615Z,22.99
2022-08-26T06:46:42.137Z,23.05
2022-08-26T06:49:12.558Z,23.17
2022-08-26T06:51:40.872Z,23.20
2022-08-26T06:54:08.438Z,23.17
2022-08-26T06:56:40.775Z,23.25
2022-08-26T06:59:08.325Z,23.24
2022-08-26T07:01:38.791Z,23.19
2022-08-26T07:04:10.491Z,23.27
2022-08-26T07:06:40.062Z,23.25
2022-08-26T07:09:09.999Z,23.29
2022-08-26T07:11:38.530Z,23.08
2022-08-26T07:14:06.261Z,23.13
2022-08-26T07:16:33.875Z,23.09
2022-08-26T07:19:11.094Z,23.04
2022-08-26T07:21:40.501Z,22.99
2022-08-26T07:24:08.468Z,22.96
2022-08-26T07:26:38.264Z,22.82
2022-08-26T07:29:05.083Z,22.76
2022-08-26T07:31:39.613Z,22.76
2022-08-26T07:34:10.999Z,22.91
2022-08-26T07:36:38.115Z,23.12
2022-08-26T07:39:05.825Z,23.08
2022-08-26T07:41:33.364Z,23.20
2022-08-26T07:44:00.766Z,23.17
2022-08-26T07:46:30.457Z,23.12
2022-08-26T07:48:57.433Z,23.20
2022-08-26T07:51:25.079Z,23.04
2022-08-26T07:53:53.202Z,22.90
2022-08-26T07:56:21.427Z,22.94
2022-08-26T07:58:51.609Z,23.12
2022-08-26T08:01:20.009Z,23.00
2022-08-26T08:03:46.705Z,23.15
2022-08-26T08:06:21.150Z,23.08
2022-08-26T08:08:50.849Z,23.22
2022-08-26T08:11:21.681Z,23.25
2022-08-26T08:13:48.988Z,23.15
2022-08-26T08:16:15.770Z,23.22
2022-08-26T08:18:42.532Z,23.21
2022-08-26T08:21:22.021Z,23.24
2022-08-26T08:23:52.848Z,23.30
2022-08-26T08:26:20.409Z,23.33
2022-08-26T08:28:48.164Z,23.32
2022-08-26T08:34:10.463Z,23.15
2022-08-26T08:36:37.049Z,23.20
2022-08-26T08:39:04.197Z,23.18
2022-08-26T08:41:51.372Z,23.06
2022-08-26T08:44:30.287Z,23.21
2022-08-26T08:47:03.036Z,23.03
2022-08-26T08:49:30.700Z,23.04
2022-08-26T08:52:37.018Z,23.05
2022-08-26T08:55:10.969Z,23.06
2022-08-26T08:58:06.166Z,23.10
2022-08-26T09:00:50.835Z,23.16
2022-08-26T09:03:40.544Z,23.22
2022-08-26T09:06:17.283Z,23.30
2022-08-26T09:08:45.970Z,23.35
2022-08-26T09:11:18.866Z,23.35
2022-08-26T09:13:51.142Z,23.20
2022-08-26T09:16:23.907Z,23.18
2022-08-26T09:19:11.315Z,23.17
2022-08-26T09:21:38.254Z,23.23
2022-08-26T09:24:06.377Z,23.28
2022-08-26T09:26:39.053Z,23.15
2022-08-26T09:29:11.463Z,23.12
2022-08-26T09:31:41.678Z,23.15
2022-08-26T09:34:24.841Z,23.29
2022-08-26T09:36:57.647Z,23.46
2022-08-26T09:39:37.639Z,23.41
2022-08-26T09:42:04.738Z,23.41
2022-08-26T09:44:31.896Z,23.38
2022-08-26T09:47:04.085Z,23.45
2022-08-26T09:49:35.974Z,23.43
2022-08-26T09:52:14.354Z,23.44
2022-08-26T09:54:43.179Z,23.45
2022-08-26T09:57:20.513Z,23.48
2022-08-26T09:59:49.515Z,23.36
2022-08-26T10:02:36.382Z,23.36
2022-08-26T10:05:09.765Z,23.42
2022-08-26T10:07:49.658Z,23.31
2022-08-26T10:10:30.610Z,23.28
2022-08-26T10:13:16.378Z,23.33
2022-08-26T10:15:52.945Z,23.33
2022-08-26T10:18:45.657Z,23.39
2022-08-26T10:21:19.681Z,23.45
2022-08-26T10:23:51.589Z,23.44
2022-08-26T10:26:21.445Z,23.32
2022-08-26T10:29:01.573Z,23.36
2022-08-26T10:31:40.483Z,23.35
2022-08-26T10:34:09.337Z,23.55
2022-08-26T10:37:15.757Z,23.50
2022-08-26T10:40:03.213Z,23.60
2022-08-26T10:42:35.390Z,23.67
2022-08-26T10:45:31.557Z,23.51
2022-08-26T10:48:08.701Z,23.51
2022-08-26T10:50:41.791Z,23.60
2022-08-26T10:53:17.567Z,23.71
2022-08-26T10:56:06.279Z,23.59
2022-08-26T10:59:17.139Z,23.62
2022-08-26T11:02:16.052Z,23.75
2022-08-26T11:04:48.535Z,23.66
2022-08-26T11:07:31.705Z,23.76
2022-08-26T11:10:18.828Z,23.78
2022-08-26T11:12:49.100Z,23.77
2022-08-26T11:15:24.793Z,23.70
2022-08-26T11:17:51.593Z,23.71
2022-08-26T11:20:30.224Z,23.67
2022-08-26T11:23:22.574Z,23.68
2022-08-26T11:25:59.085Z,23.76
2022-08-26T11:28:50.804Z,23.75
2022-08-26T11:31:18.979Z,23.69
2022-08-26T11:34:08.857Z,23.71
2022-08-26T11:36:43.646Z,23.85
2022-08-26T11:39:36.520Z,23.80
2022-08-26T11:42:20.121Z,23.73
2022-08-26T11:44:49.961Z,23.72
2022-08-26T11:47:27.397Z,23.90
2022-08-26T11:50:17.678Z,24.04
2022-08-26T11:53:02.440Z,24.13
2022-08-26T11:55:31.970Z,23.92
2022-08-26T11:58:01.285Z,24.06
2022-08-26T12:00:33.320Z,24.25
2022-08-26T12:03:02.969Z,24.25
2022-08-26T12:05:35.142Z,24.40
2022-08-26T12:08:09.701Z,24.50
2022-08-26T12:10:36.728Z,24.61
2022-08-26T12:15:34.137Z,24.58
2022-08-26T12:18:29.518Z,24.27
2022-08-26T12:21:34.932Z,24.18
2022-08-26T12:24:04.165Z,24.25
2022-08-26T12:26:34.084Z,24.32
2022-08-26T12:29:12.723Z,24.41
2022-08-26T12:31:46.996Z,24.41
2022-08-26T12:34:18.601Z,24.44
2022-08-26T12:39:29.866Z,24.38
2022-08-26T12:42:01.891Z,24.54
2022-08-26T12:44:32.041Z,24.35
2022-08-26T12:47:08.363Z,24.18
2022-08-26T12:49:37.851Z,24.06
2022-08-26T12:52:06.488Z,23.98
2022-08-26T12:54:56.735Z,24.11
2022-08-26T12:57:32.508Z,24.24
2022-08-26T13:00:28.501Z,24.45
2022-08-26T13:02:55.593Z,24.51
2022-08-26T13:05:25.723Z,24.54
2022-08-26T13:08:12.443Z,24.46
2022-08-26T13:10:45.742Z,24.39
2022-08-26T13:13:13.383Z,24.45
2022-08-26T13:15:40.256Z,24.46
2022-08-26T13:18:07.076Z,24.53
2022-08-26T13:20:33.957Z,24.62
2022-08-26T13:23:00.801Z,24.57
2022-08-26T13:25:27.911Z,24.34
2022-08-26T13:27:55.481Z,24.31
2022-08-26T13:30:22.303Z,24.27
2022-08-26T13:32:50.716Z,24.37
2022-08-26T13:35:17.770Z,24.33
2022-08-26T13:37:44.517Z,24.27
2022-08-26T13:40:14.454Z,24.19
2022-08-26T13:42:49.537Z,24.32
2022-08-26T13:45:18.238Z,24.30
2022-08-26T13:47:45.023Z,24.30
2022-08-26T13:50:11.795Z,24.23
2022-08-26T13:52:38.660Z,24.18
2022-08-26T13:55:06.827Z,24.19
2022-08-26T13:57:33.648Z,23.99
2022-08-26T14:00:00.958Z,23.96
2022-08-26T14:02:28.245Z,24.06
2022-08-26T14:04:56.135Z,24.04
2022-08-26T14:07:23.174Z,24.00
2022-08-26T14:09:50.022Z,24.06
2022-08-26T14:12:16.849Z,24.03
2022-08-26T14:14:43.794Z,24.06
2022-08-26T14:17:19.358Z,24.03
2022-08-26T14:19:47.352Z,23.99
2022-08-26T14:22:15.800Z,24.00
2022-08-26T14:24:43.882Z,23.95
2022-08-26T14:27:12.355Z,23.88
2022-08-26T14:29:39.563Z,23.84
2022-08-26T14:32:23.047Z,23.76
2022-08-26T14:34:53.629Z,23.69
2022-08-26T14:37:20.586Z,23.71
2022-08-26T14:39:50.250Z,23.78
2022-08-26T14:42:21.084Z,23.74
2022-08-26T14:44:50.889Z,23.71
2022-08-26T14:47:18.251Z,23.72
2022-08-26T14:49:45.889Z,23.70
2022-08-26T14:52:12.652Z,23.64
2022-08-26T14:54:39.333Z,23.53
2022-08-26T14:57:15.138Z,23.51
2022-08-26T14:59:49.665Z,23.49
2022-08-26T15:02:32.859Z,23.67
2022-08-26T15:05:03.915Z,23.76
2022-08-26T15:07:30.872Z,23.69
2022-08-26T15:09:57.618Z,23.68
2022-08-26T15:12:24.452Z,23.70
2022-08-26T15:14:51.502Z,23.68
2022-08-26T15:17:18.282Z,23.60
2022-08-26T15:19:45.097Z,23.55
2022-08-26T15:22:11.832Z,23.59
2022-08-26T15:24:38.540Z,23.54
2022-08-26T15:27:05.298Z,23.64
2022-08-26T15:29:32.036Z,23.46
2022-08-26T15:32:04.581Z,23.44
2022-08-26T15:34:32.127Z,23.36
2022-08-26T15:37:00.777Z,23.41
2022-08-26T15:39:27.919Z,23.46
2022-08-26T15:41:56.318Z,23.47
2022-08-26T15:44:23.456Z,23.53
2022-08-26T15:46:53.292Z,23.42
2022-08-26T15:49:25.008Z,23.40
2022-08-26T15:51:51.946Z,23.37
2022-08-26T15:54:21.941Z,23.34
2022-08-26T15:56:51.802Z,23.38
2022-08-26T15:59:20.560Z,23.49
2022-08-26T16:01:48.416Z,23.34
2022-08-26T16:04:15.247Z,23.25
2022-08-26T16:06:43.620Z,23.29
2022-08-26T16:09:11.148Z,23.29
2022-08-26T16:11:38.185Z,23.38
2022-08-26T16:14:05.937Z,23.33
2022-08-26T16:16:33.151Z,23.33
2022-08-26T16:19:08.640Z,23.35
2022-08-26T16:21:35.973Z,23.15
2022-08-26T16:24:05.897Z,23.23
2022-08-26T16:26:39.723Z,23.21
2022-08-26T16:29:16.726Z,23.18
2022-08-26T16:31:48.984Z,23.02
2022-08-26T16:34:15.733Z,23.09
2022-08-26T16:36:42.459Z,23.20
2022-08-26T16:39:09.637Z,23.13
2022-08-26T16:41:36.807Z,23.08
2022-08-26T16:44:04.443Z,23.03
2022-08-26T16:46:31.654Z,23.02
2022-08-26T16:48:59.490Z,22.97
2022-08-26T16:51:27.722Z,23.04
2022-08-26T16:53:55.979Z,23.08
2022-08-26T16:56:27.675Z,23.01
2022-08-26T16:59:01.805Z,23.02
2022-08-26T17:01:28.690Z,23.12
2022-08-26T17:03:55.487Z,23.00
2022-08-26T17:06:22.277Z,23.00
2022-08-26T17:08:49.385Z,22.98
2022-08-26T17:11:19.799Z,22.96
2022-08-26T17:13:46.738Z,22.83
2022-08-26T17:16:14.273Z,22.91
2022-08-26T17:18:41.235Z,23.02
2022-08-26T17:21:10.817Z,22.95
2022-08-26T17:23:38.416Z,22.92
2022-08-26T17:26:05.482Z,22.97
2022-08-26T17:28:32.447Z,22.92
2022-08-26T17:31:02.300Z,22.83
2022-08-26T17:33:29.213Z,22.76
2022-08-26T17:35:58.422Z,22.71
2022-08-26T17:38:25.687Z,22.74
2022-08-26T17:40:52.541Z,22.79
2022-08-26T17:43:21.296Z,22.85
2022-08-26T17:45:48.150Z,22.83
2022-08-26T17:48:14.907Z,22.82
2022-08-26T17:50:42.894Z,22.65
2022-08-26T17:53:18.618Z,22.68
2022-08-26T17:55:49.233Z,22.74
2022-08-26T17:58:23.421Z,22.73
2022-08-26T18:00:52.379Z,22.69
2022-08-26T18:03:19.379Z,22.65
2022-08-26T18:05:51.100Z,22.62
2022-08-26T18:08:17.900Z,22.60
2022-08-26T18:10:47.413Z,22.78
2022-08-26T18:13:17.031Z,22.71
2022-08-26T18:15:45.676Z,22.79
2022-08-26T18:18:14.004Z,22.82
2022-08-26T18:20:43.082Z,22.79
2022-08-26T18:23:10.100Z,22.75
2022-08-26T18:25:44.053Z,22.68
2022-08-26T18:28:10.776Z,22.77
2022-08-26T18:30:37.829Z,22.83
2022-08-26T18:33:04.722Z,22.81
2022-08-26T18:35:31.859Z,22.77
2022-08-26T18:38:10.893Z,22.58
2022-08-26T18:40:43.937Z,22.50
2022-08-26T18:43:11.096Z,22.36
2022-08-26T18:45:37.991Z,22.37
2022-08-26T18:48:05.172Z,22.48
2022-08-26T18:50:32.046Z,22.41
2022-08-26T18:52:58.772Z,22.40
2022-08-26T18:55:25.523Z,22.37
2022-08-26T18:57:52.279Z,22.39
2022-08-26T19:00:18.985Z,22.45
2022-08-26T19:02:51.713Z,22.38
2022-08-26T19:05:19.418Z,22.24
2022-08-26T19:07:49.174Z,22.16
2022-08-26T19:10:18.958Z,22.00
2022-08-26T19:12:45.837Z,22.05
2022-08-26T19:15:18.702Z,22.04
2022-08-26T19:17:45.430Z,22.03
2022-08-26T19:20:12.495Z,22.03
2022-08-26T19:22:39.228Z,21.99
2022-08-26T19:25:06.253Z,21.93
2022-08-26T19:27:33.680Z,21.93
2022-08-26T19:30:00.402Z,21.80
2022-08-26T19:32:27.205Z,21.81
2022-08-26T19:34:54.422Z,21.81
2022-08-26T19:37:21.520Z,21.65
2022-08-26T19:39:48.374Z,21.55
2022-08-26T19:42:15.157Z,21.53
2022-08-26T19:45:00.296Z,21.55
2022-08-26T19:47:27.122Z,21.54
2022-08-26T19:49:55.274Z,21.64
2022-08-26T19:52:23.584Z,21.74
2022-08-26T19:54:57.119Z,21.82
2022-08-26T19:57:23.816Z,21.74
2022-08-26T19:59:50.722Z,21.71
2022-08-26T20:02:18.270Z,21.78
2022-08-26T20:04:45.942Z,21.70
2022-08-26T20:07:18.515Z,21.51
2022-08-26T20:09:46.506Z,21.47
2022-08-26T20:12:13.849Z,21.59
2022-08-26T20:14:40.693Z,21.57
2022-08-26T20:17:07.635Z,21.50
2022-08-26T20:19:53.503Z,21.43
2022-08-26T20:22:20.924Z,21.42
2022-08-26T20:24:48.765Z,21.38
2022-08-26T20:27:15.678Z,21.49
2022-08-26T20:29:43.164Z,21.47
2022-08-26T20:32:10.670Z,21.39
2022-08-26T20:34:38.485Z,21.48
2022-08-26T20:37:05.492Z,21.42
2022-08-26T20:39:32.242Z,21.39
2022-08-26T20:41:59.029Z,21.38
2022-08-26T20:44:25.791Z,21.45
2022-08-26T20:46:52.816Z,21.53
2022-08-26T20:49:19.631Z,21.54
2022-08-26T20:51:50.872Z,21.52
2022-08-26T20:54:18.659Z,21.45
2022-08-26T20:56:50.927Z,21.48
2022-08-26T20:59:18.092Z,21.57
2022-08-26T21:01:45.718Z,21.64
2022-08-26T21:04:20.834Z,21.64
2022-08-26T21:06:52.180Z,21.49
2022-08-26T21:09:21.011Z,21.40
2022-08-26T21:11:48.721Z,21.29
2022-08-26T21:14:15.600Z,21.14
2022-08-26T21:16:44.076Z,21.14
2022-08-26T21:19:13.198Z,21.19
2022-08-26T21:21:40.977Z,21.21
2022-08-26T21:24:08.042Z,21.12
2022-08-26T21:26:34.813Z,20.96
2022-08-26T21:29:02.617Z,20.99
2022-08-26T21:31:29.933Z,21.05
2022-08-26T21:33:56.921Z,21.10
2022-08-26T21:36:23.746Z,21.01
2022-08-26T21:38:50.431Z,21.06
2022-08-26T21:41:20.370Z,20.94
2022-08-26T21:43:48.506Z,20.83
2022-08-26T21:46:18.274Z,20.98
2022-08-26T21:48:50.665Z,21.13
2022-08-26T21:51:19.649Z,21.04
2022-08-26T21:53:46.576Z,21.01
2022-08-26T21:56:15.699Z,20.97
2022-08-26T21:58:42.485Z,20.84
2022-08-26T22:01:15.730Z,20.73
2022-08-26T22:03:47.501Z,20.73
2022-08-26T22:06:16.814Z,20.73
2022-08-26T22:08:43.896Z,20.84
2022-08-26T22:11:10.773Z,20.87
2022-08-26T22:13:40.213Z,21.00
2022-08-26T22:16:07.371Z,21.04
2022-08-26T22:18:35.024Z,21.02
2022-08-26T22:21:07.111Z,21.15
2022-08-26T22:23:35.137Z,21.19
2022-08-26T22:26:02.575Z,20.94
2022-08-26T22:28:29.394Z,20.96
2022-08-26T22:30:56.040Z,20.81
2022-08-26T22:33:23.619Z,20.67
2022-08-26T22:35:52.813Z,20.67
2022-08-26T22:38:20.592Z,20.70
2022-08-26T22:40:50.944Z,20.74
2022-08-26T22:43:19.277Z,20.82
2022-08-26T22:45:48.500Z,20.69
2022-08-26T22:48:17.865Z,20.67
2022-08-26T22:50:48.662Z,20.70
2022-08-26T22:53:16.608Z,20.74
2022-08-26T22:55:43.765Z,20.60
2022-08-26T22:58:12.571Z,20.53
2022-08-26T23:00:40.174Z,20.66
2022-08-26T23:03:08.067Z,20.48
2022-08-26T23:05:34.942Z,20.32
2022-08-26T23:08:02.074Z,20.31
2022-08-26T23:10:28.723Z,20.07
2022-08-26T23:12:55.493Z,19.92
2022-08-26T23:15:22.468Z,19.85
2022-08-26T23:17:51.360Z,19.81
2022-08-26T23:20:26.801Z,19.77
2022-08-26T23:22:53.950Z,19.72
2022-08-26T23:25:21.023Z,19.79
2022-08-26T23:27:48.595Z,19.81
2022-08-26T23:30:19.790Z,19.90
2022-08-26T23:32:46.727Z,19.72
2022-08-26T23:35:14.446Z,19.76
2022-08-26T23:37:44.289Z,19.55
2022-08-26T23:40:19.006Z,19.58
2022-08-26T23:42:45.785Z,19.47
2022-08-26T23:45:13.472Z,19.30
2022-08-26T23:47:41.256Z,19.31
2022-08-26T23:50:08.780Z,19.33
2022-08-26T23:52:54.055Z,19.33
2022-08-26T23:55:20.785Z,19.29
2022-08-26T23:57:47.700Z,19.28
